createdAt,value
2018-03-28T00:01:26.134Z,71.57
2018-03-28T00:03:54.609Z,71.68
2018-03-28T00:06:23.139Z,71.64
2018-03-28T00:08:51.670Z,72.10
2018-03-28T00:11:20.123Z,71.96
2018-03-28T00:13:48.618Z,71.77
2018-03-28T00:16:17.125Z,71.76
2018-03-28T00:18:45.583Z,72.26
2018-03-28T00:21:14.038Z,72.53
2018-03-28T00:23:42.542Z,72.42
2018-03-28T00:26:11.000Z,72.08
2018-03-28T00:28:39.481Z,71.96
2018-03-28T00:31:07.979Z,71.88
2018-03-28T00:33:36.474Z,71.81
2018-03-28T00:36:04.981Z,71.76
2018-03-28T00:38:33.443Z,71.85
2018-03-28T00:41:01.954Z,71.84
2018-03-28T00:43:30.463Z,71.98
2018-03-28T00:45:59.858Z,72.00
2018-03-28T00:48:28.350Z,72.12
2018-03-28T00:50:56.888Z,72.24
2018-03-28T00:53:25.421Z,72.08
2018-03-28T00:55:53.898Z,72.21
2018-03-28T00:58:22.394Z,72.25
2018-03-28T01:00:50.861Z,72.31
2018-03-28T01:03:19.398Z,72.28
2018-03-28T01:05:47.869Z,72.51
2018-03-28T01:08:16.365Z,72.68
2018-03-28T01:10:44.876Z,72.02
2018-03-28T01:13:13.338Z,72.23
2018-03-28T01:15:41.848Z,72.17
2018-03-28T01:18:10.342Z,72.19
2018-03-28T01:20:38.907Z,72.18
2018-03-28T01:23:07.423Z,72.20
2018-03-28T01:25:35.932Z,72.42
2018-03-28T01:28:04.410Z,72.35
2018-03-28T01:30:32.918Z,72.27
2018-03-28T01:33:01.385Z,72.26
2018-03-28T01:35:29.850Z,72.21
2018-03-28T01:37:58.342Z,72.42
2018-03-28T01:40:26.857Z,72.56
2018-03-28T01:42:55.350Z,72.48
2018-03-28T01:45:23.810Z,72.47
2018-03-28T01:47:52.310Z,72.43
2018-03-28T01:50:20.827Z,72.48
2018-03-28T01:52:49.301Z,72.36
2018-03-28T01:55:17.802Z,72.29
2018-03-28T01:57:46.295Z,72.61
2018-03-28T02:00:14.793Z,72.68
2018-03-28T02:02:43.305Z,72.60
2018-03-28T02:05:11.797Z,72.50
2018-03-28T02:07:40.285Z,72.43
2018-03-28T02:10:08.784Z,72.30
2018-03-28T02:12:37.266Z,72.19
2018-03-28T02:15:05.774Z,72.34
2018-03-28T02:17:34.289Z,72.23
2018-03-28T02:20:02.803Z,72.19
2018-03-28T02:22:31.302Z,72.35
2018-03-28T02:24:59.793Z,72.57
2018-03-28T02:27:28.290Z,72.68
2018-03-28T02:29:56.749Z,72.71
2018-03-28T02:32:25.258Z,72.78
2018-03-28T02:34:53.730Z,72.75
2018-03-28T02:37:22.223Z,72.90
2018-03-28T02:39:50.710Z,73.00
2018-03-28T02:42:19.211Z,73.01
2018-03-28T02:44:47.711Z,73.08
2018-03-28T02:47:16.618Z,73.13
2018-03-28T02:49:45.125Z,73.01
2018-03-28T02:52:13.635Z,73.03
2018-03-28T02:54:42.110Z,72.89
2018-03-28T02:57:10.609Z,72.81
2018-03-28T02:59:39.106Z,72.53
2018-03-28T03:02:07.606Z,68.28
2018-03-28T03:04:36.113Z,70.23
2018-03-28T03:07:04.634Z,70.62
2018-03-28T03:09:33.133Z,71.33
2018-03-28T03:12:01.621Z,67.00
2018-03-28T03:14:30.114Z,67.43
2018-03-28T03:16:58.579Z,67.67
2018-03-28T03:19:27.081Z,69.47
2018-03-28T03:21:55.552Z,68.25
2018-03-28T03:24:24.010Z,68.90
2018-03-28T03:26:52.518Z,68.91
2018-03-28T03:29:21.009Z,69.40
2018-03-28T03:31:49.473Z,68.39
2018-03-28T03:34:17.930Z,68.16
2018-03-28T03:36:46.472Z,68.46
2018-03-28T03:39:14.942Z,69.92
2018-03-28T03:41:43.416Z,69.74
2018-03-28T03:44:11.906Z,68.79
2018-03-28T03:46:40.374Z,69.04
2018-03-28T03:49:08.913Z,68.97
2018-03-28T03:51:37.369Z,68.88
2018-03-28T03:54:05.864Z,69.74
2018-03-28T03:56:34.325Z,70.21
2018-03-28T03:59:02.832Z,70.78
2018-03-28T04:01:31.348Z,71.33
2018-03-28T04:03:59.846Z,71.49
2018-03-28T04:06:28.325Z,71.56
2018-03-28T04:08:56.818Z,71.78
2018-03-28T04:11:25.285Z,71.75
2018-03-28T04:13:53.748Z,71.91
2018-03-28T04:16:22.249Z,72.06
2018-03-28T04:18:50.758Z,71.95
2018-03-28T04:21:19.218Z,72.32
2018-03-28T04:23:47.696Z,71.77
2018-03-28T04:26:16.185Z,71.90
2018-03-28T04:28:44.654Z,72.41
2018-03-28T04:31:13.150Z,71.46
2018-03-28T04:33:41.651Z,71.68
2018-03-28T04:36:10.126Z,71.94
2018-03-28T04:38:38.633Z,70.66
2018-03-28T04:41:07.140Z,70.89
2018-03-28T04:43:35.647Z,70.23
2018-03-28T04:46:04.110Z,69.17
2018-03-28T04:48:32.665Z,69.10
2018-03-28T04:51:01.175Z,67.96
2018-03-28T04:53:29.631Z,67.29
2018-03-28T04:55:58.090Z,66.34
2018-03-28T04:58:26.614Z,65.42
2018-03-28T05:00:55.105Z,65.07
2018-03-28T05:03:23.602Z,64.57
2018-03-28T05:05:52.118Z,63.71
2018-03-28T05:08:20.594Z,62.64
2018-03-28T05:10:49.074Z,62.29
2018-03-28T05:13:17.614Z,61.97
2018-03-28T05:15:46.132Z,61.73
2018-03-28T05:18:14.632Z,62.34
2018-03-28T05:20:43.198Z,61.77
2018-03-28T05:23:11.665Z,62.19
2018-03-28T05:25:40.297Z,61.61
2018-03-28T05:28:09.050Z,61.14
2018-03-28T05:30:37.521Z,60.83
2018-03-28T05:33:05.999Z,61.11
2018-03-28T05:35:34.499Z,60.97
2018-03-28T05:38:02.960Z,61.10
2018-03-28T05:40:31.478Z,61.98
2018-03-28T05:42:59.979Z,61.86
2018-03-28T05:45:28.469Z,61.71
2018-03-28T05:47:56.975Z,62.03
2018-03-28T05:50:25.506Z,62.50
2018-03-28T05:52:54.002Z,62.28
2018-03-28T05:55:22.536Z,62.57
2018-03-28T05:57:51.054Z,62.90
2018-03-28T06:00:19.511Z,62.06
2018-03-28T06:02:48.010Z,61.84
2018-03-28T06:05:16.496Z,61.97
2018-03-28T06:07:44.994Z,62.44
2018-03-28T06:10:13.460Z,62.28
2018-03-28T06:12:41.958Z,62.44
2018-03-28T06:15:10.470Z,62.20
2018-03-28T06:17:38.940Z,61.99
2018-03-28T06:20:07.455Z,62.17
2018-03-28T06:22:35.993Z,61.85
2018-03-28T06:25:04.491Z,61.78
2018-03-28T06:27:32.998Z,62.13
2018-03-28T06:30:01.502Z,61.73
2018-03-28T06:32:30.018Z,62.55
2018-03-28T06:34:58.478Z,62.17
2018-03-28T06:37:26.962Z,62.39
2018-03-28T06:39:55.543Z,62.41
2018-03-28T06:42:24.002Z,62.21
2018-03-28T06:44:52.511Z,62.78
2018-03-28T06:47:21.057Z,63.02
2018-03-28T06:49:49.531Z,63.71
2018-03-28T06:52:18.064Z,62.30
2018-03-28T06:54:46.548Z,63.64
2018-03-28T06:57:15.005Z,62.37
2018-03-28T06:59:43.568Z,62.03
2018-03-28T07:02:12.008Z,61.94
2018-03-28T07:04:41.289Z,62.68
2018-03-28T07:07:09.776Z,62.39
2018-03-28T07:09:38.277Z,61.38
2018-03-28T07:12:06.785Z,61.50
2018-03-28T07:14:35.243Z,59.56
2018-03-28T07:17:03.755Z,55.59
2018-03-28T07:19:32.226Z,55.83
2018-03-28T07:22:01.085Z,55.83
2018-03-28T07:24:29.698Z,57.53
2018-03-28T07:26:58.205Z,54.39
2018-03-28T07:29:26.670Z,56.01
2018-03-28T07:31:55.178Z,57.02
2018-03-28T07:34:23.665Z,56.17
2018-03-28T07:36:52.149Z,55.54
2018-03-28T07:39:20.666Z,55.68
2018-03-28T07:41:49.132Z,55.98
2018-03-28T07:44:17.609Z,55.09
2018-03-28T07:46:46.105Z,55.56
2018-03-28T07:49:14.623Z,55.41
2018-03-28T07:51:43.134Z,54.54
2018-03-28T07:54:11.606Z,55.50
2018-03-28T07:56:40.115Z,55.09
2018-03-28T07:59:08.581Z,55.06
2018-03-28T08:01:37.087Z,53.60
2018-03-28T08:04:05.586Z,52.59
2018-03-28T08:06:34.054Z,49.28
2018-03-28T08:09:02.555Z,50.40
2018-03-28T08:11:31.055Z,52.42
2018-03-28T08:13:59.578Z,52.49
2018-03-28T08:16:28.038Z,51.46
2018-03-28T08:18:56.538Z,51.71
2018-03-28T08:21:25.074Z,50.19
2018-03-28T08:23:53.530Z,50.52
2018-03-28T08:26:22.006Z,48.96
2018-03-28T08:28:50.514Z,48.98
2018-03-28T08:31:19.021Z,49.92
2018-03-28T08:33:47.542Z,50.22
2018-03-28T08:36:16.083Z,51.55
2018-03-28T08:38:44.542Z,51.09
2018-03-28T08:41:13.059Z,49.98
2018-03-28T08:43:41.522Z,51.47
2018-03-28T08:46:10.031Z,49.23
2018-03-28T08:48:38.564Z,50.28
2018-03-28T08:51:07.054Z,49.87
2018-03-28T08:53:35.575Z,52.06
2018-03-28T08:56:04.068Z,52.61
2018-03-28T08:58:32.547Z,51.15
2018-03-28T09:01:01.042Z,50.15
2018-03-28T09:03:29.540Z,50.04
2018-03-28T09:05:58.076Z,51.13
2018-03-28T09:08:26.588Z,51.48
2018-03-28T09:10:55.104Z,51.77
2018-03-28T09:13:26.160Z,51.72
2018-03-28T09:15:56.792Z,51.22
2018-03-28T09:18:26.080Z,51.79
2018-03-28T09:20:54.917Z,51.63
2018-03-28T09:23:23.493Z,50.28
2018-03-28T09:25:51.957Z,49.51
2018-03-28T09:28:20.457Z,49.90
2018-03-28T09:30:48.957Z,49.61
2018-03-28T09:33:17.427Z,48.55
2018-03-28T09:35:45.943Z,49.28
2018-03-28T09:38:14.447Z,48.74
2018-03-28T09:40:42.954Z,48.14
2018-03-28T09:43:11.440Z,46.81
2018-03-28T09:45:39.964Z,45.41
2018-03-28T09:48:08.439Z,45.59
2018-03-28T09:50:36.949Z,43.74
2018-03-28T09:53:05.470Z,43.56
2018-03-28T09:55:33.943Z,44.84
2018-03-28T09:58:02.453Z,45.02
2018-03-28T10:00:30.943Z,45.55
2018-03-28T10:03:04.837Z,44.60
2018-03-28T10:05:39.167Z,45.94
2018-03-28T10:08:07.677Z,44.09
2018-03-28T10:10:36.429Z,43.11
2018-03-28T10:13:04.902Z,44.15
2018-03-28T10:15:33.413Z,44.51
2018-03-28T10:18:01.890Z,43.14
2018-03-28T10:20:30.406Z,45.34
2018-03-28T10:22:58.868Z,42.66
2018-03-28T10:25:27.382Z,41.82
2018-03-28T10:27:55.850Z,44.20
2018-03-28T10:30:24.342Z,41.70
2018-03-28T10:32:52.868Z,42.28
2018-03-28T10:35:21.370Z,41.86
2018-03-28T10:37:50.160Z,39.86
2018-03-28T10:40:19.662Z,40.26
2018-03-28T10:42:48.163Z,40.06
2018-03-28T10:45:16.686Z,39.67
2018-03-28T10:47:45.190Z,38.96
2018-03-28T10:50:13.740Z,38.39
2018-03-28T10:52:42.334Z,38.82
2018-03-28T10:55:10.802Z,38.71
2018-03-28T10:57:39.314Z,37.84
2018-03-28T11:00:07.858Z,40.42
2018-03-28T11:02:36.370Z,37.87
2018-03-28T11:05:04.838Z,39.01
2018-03-28T11:07:33.245Z,36.98
2018-03-28T11:10:01.645Z,35.13
2018-03-28T11:12:30.095Z,34.91
2018-03-28T11:14:58.570Z,36.32
2018-03-28T11:17:27.069Z,36.00
2018-03-28T11:19:55.478Z,35.43
2018-03-28T11:22:23.912Z,34.01
2018-03-28T11:24:52.361Z,36.20
2018-03-28T11:27:20.805Z,34.23
2018-03-28T11:29:49.298Z,33.08
2018-03-28T11:32:17.734Z,32.64
2018-03-28T11:34:46.163Z,32.96
2018-03-28T11:37:14.671Z,33.33
2018-03-28T11:39:43.133Z,33.24
2018-03-28T11:42:12.045Z,33.24
2018-03-28T11:44:40.702Z,35.92
2018-03-28T11:47:09.199Z,36.53
2018-03-28T11:49:37.718Z,37.13
2018-03-28T11:52:06.199Z,38.44
2018-03-28T11:54:34.678Z,38.64
2018-03-28T11:57:03.201Z,46.54
2018-03-28T11:59:31.713Z,46.53
2018-03-28T12:02:00.250Z,46.63
2018-03-28T12:04:28.769Z,47.78
2018-03-28T12:06:57.274Z,49.21
2018-03-28T12:09:25.774Z,50.96
2018-03-28T12:11:54.289Z,52.38
2018-03-28T12:14:22.818Z,54.08
2018-03-28T12:16:51.282Z,53.79
2018-03-28T12:19:19.845Z,54.35
2018-03-28T12:21:48.365Z,53.11
2018-03-28T12:24:16.903Z,53.94
2018-03-28T12:26:45.417Z,53.13
2018-03-28T12:29:13.913Z,53.98
2018-03-28T12:31:42.390Z,53.15
2018-03-28T12:34:10.912Z,52.81
2018-03-28T12:36:39.378Z,54.76
2018-03-28T12:39:07.941Z,53.74
2018-03-28T12:41:36.442Z,53.55
2018-03-28T12:44:04.964Z,54.26
2018-03-28T12:46:33.443Z,53.75
2018-03-28T12:49:01.950Z,53.75
2018-03-28T12:51:30.444Z,54.58
2018-03-28T12:53:59.009Z,55.05
2018-03-28T12:56:27.528Z,53.87
2018-03-28T12:58:56.125Z,53.90
2018-03-28T13:01:25.242Z,53.06
2018-03-28T13:03:53.756Z,53.04
2018-03-28T13:06:22.266Z,52.37
2018-03-28T13:08:50.815Z,52.39
2018-03-28T13:11:19.301Z,52.54
2018-03-28T13:13:47.824Z,51.83
2018-03-28T13:16:16.339Z,52.10
2018-03-28T13:18:44.870Z,50.78
2018-03-28T13:21:13.438Z,49.98
2018-03-28T13:23:41.946Z,49.85
2018-03-28T13:26:10.423Z,50.05
2018-03-28T13:28:38.922Z,50.57
2018-03-28T13:31:07.386Z,50.43
2018-03-28T13:33:35.912Z,51.51
2018-03-28T13:36:04.437Z,51.97
2018-03-28T13:38:32.946Z,52.23
2018-03-28T13:41:01.446Z,51.35
2018-03-28T13:43:29.921Z,50.75
2018-03-28T13:45:58.414Z,50.67
2018-03-28T13:48:26.927Z,47.91
2018-03-28T13:50:55.452Z,48.62
2018-03-28T13:53:23.919Z,48.19
2018-03-28T13:55:52.458Z,48.64
2018-03-28T13:58:20.930Z,50.33
2018-03-28T14:00:49.398Z,49.43
2018-03-28T14:03:17.962Z,49.13
2018-03-28T14:05:46.485Z,48.74
2018-03-28T14:08:15.058Z,49.16
2018-03-28T14:10:43.593Z,50.40
2018-03-28T14:13:12.098Z,51.73
2018-03-28T14:15:40.626Z,50.73
2018-03-28T14:18:09.094Z,50.77
2018-03-28T14:20:37.569Z,51.35
2018-03-28T14:23:06.078Z,50.37
2018-03-28T14:25:34.550Z,51.72
2018-03-28T14:28:03.234Z,52.67
2018-03-28T14:30:31.726Z,52.10
2018-03-28T14:33:00.257Z,52.92
2018-03-28T14:35:28.760Z,53.18
2018-03-28T14:37:57.226Z,52.53
2018-03-28T14:40:25.774Z,52.83
2018-03-28T14:42:54.586Z,53.31
2018-03-28T14:45:22.807Z,52.87
2018-03-28T14:47:51.270Z,53.46
2018-03-28T14:50:19.773Z,53.80
2018-03-28T14:52:48.270Z,53.93
2018-03-28T14:55:16.735Z,53.86
2018-03-28T14:57:45.249Z,54.78
2018-03-28T15:00:13.714Z,54.77
2018-03-28T15:02:42.226Z,54.43
2018-03-28T15:05:10.710Z,54.23
2018-03-28T15:07:39.247Z,54.23
2018-03-28T15:10:07.722Z,54.29
2018-03-28T15:12:36.226Z,55.37
2018-03-28T15:15:04.721Z,55.70
2018-03-28T15:17:33.218Z,56.14
2018-03-28T15:20:01.735Z,56.86
2018-03-28T15:22:30.202Z,57.33
2018-03-28T15:24:58.665Z,57.57
2018-03-28T15:27:27.182Z,57.93
2018-03-28T15:29:55.647Z,57.98
2018-03-28T15:32:24.128Z,59.02
2018-03-28T15:34:52.630Z,58.56
2018-03-28T15:37:21.129Z,58.78
2018-03-28T15:39:49.644Z,59.23
2018-03-28T15:42:18.110Z,59.10
2018-03-28T15:44:46.610Z,59.39
2018-03-28T15:47:15.096Z,59.82
2018-03-28T15:49:43.599Z,59.70
2018-03-28T15:52:12.098Z,60.29
2018-03-28T15:54:40.602Z,60.28
2018-03-28T15:57:09.099Z,59.97
2018-03-28T15:59:37.603Z,60.31
2018-03-28T16:02:06.062Z,60.44
2018-03-28T16:04:34.582Z,60.37
2018-03-28T16:07:03.090Z,60.63
2018-03-28T16:09:31.556Z,61.03
2018-03-28T16:12:00.076Z,60.89
2018-03-28T16:14:28.537Z,60.80
2018-03-28T16:16:57.042Z,60.60
2018-03-28T16:19:25.547Z,61.12
2018-03-28T16:21:54.041Z,61.01
2018-03-28T16:24:22.508Z,61.27
2018-03-28T16:26:51.010Z,60.78
2018-03-28T16:29:19.498Z,60.79
2018-03-28T16:31:48.028Z,60.68
2018-03-28T16:34:16.534Z,60.61
2018-03-28T16:36:45.043Z,61.08
2018-03-28T16:39:13.574Z,61.28
2018-03-28T16:41:42.096Z,61.32
2018-03-28T16:44:10.591Z,61.52
2018-03-28T16:46:39.089Z,61.78
2018-03-28T16:49:07.614Z,61.93
2018-03-28T16:51:36.077Z,62.41
2018-03-28T16:54:04.586Z,62.64
2018-03-28T16:56:33.265Z,63.26
2018-03-28T16:59:01.790Z,63.05
2018-03-28T17:01:30.302Z,63.66
2018-03-28T17:03:58.773Z,63.71
2018-03-28T17:06:27.278Z,63.70
2018-03-28T17:08:55.753Z,63.87
2018-03-28T17:11:24.213Z,64.24
2018-03-28T17:13:52.716Z,64.35
2018-03-28T17:16:21.206Z,64.99
2018-03-28T17:18:49.746Z,64.64
2018-03-28T17:21:18.237Z,64.99
2018-03-28T17:23:46.699Z,65.19
2018-03-28T17:26:15.190Z,65.62
2018-03-28T17:28:43.714Z,65.70
2018-03-28T17:31:12.166Z,65.33
2018-03-28T17:33:40.628Z,65.56
2018-03-28T17:36:09.117Z,65.91
2018-03-28T17:38:37.592Z,66.13
2018-03-28T17:41:06.094Z,66.75
2018-03-28T17:43:34.578Z,65.76
2018-03-28T17:46:03.090Z,66.01
2018-03-28T17:48:31.555Z,66.01
2018-03-28T17:51:00.023Z,66.05
2018-03-28T17:53:28.530Z,66.32
2018-03-28T17:55:56.995Z,66.48
2018-03-28T17:58:25.497Z,66.47
2018-03-28T18:00:53.962Z,66.70
2018-03-28T18:03:22.461Z,66.59
2018-03-28T18:05:51.067Z,66.87
2018-03-28T18:08:19.562Z,66.84
2018-03-28T18:10:48.018Z,66.98
2018-03-28T18:13:16.551Z,67.03
2018-03-28T18:15:45.042Z,67.03
2018-03-28T18:18:13.534Z,67.06
2018-03-28T18:20:41.991Z,67.11
2018-03-28T18:23:10.490Z,67.10
2018-03-28T18:25:38.958Z,67.25
2018-03-28T18:28:07.455Z,67.34
2018-03-28T18:30:35.965Z,67.71
2018-03-28T18:33:04.448Z,67.85
2018-03-28T18:35:32.950Z,67.76
2018-03-28T18:38:01.410Z,67.36
2018-03-28T18:40:29.996Z,67.53
2018-03-28T18:42:58.465Z,67.65
2018-03-28T18:45:26.969Z,68.18
2018-03-28T18:47:55.438Z,68.40
2018-03-28T18:50:23.900Z,67.99
2018-03-28T18:52:52.485Z,68.45
2018-03-28T18:55:20.968Z,67.83
2018-03-28T18:57:49.470Z,68.35
2018-03-28T19:00:17.961Z,68.91
2018-03-28T19:02:46.425Z,69.07
2018-03-28T19:05:14.930Z,69.10
2018-03-28T19:07:43.398Z,69.13
2018-03-28T19:10:11.886Z,69.18
2018-03-28T19:12:40.344Z,69.71
2018-03-28T19:15:08.832Z,69.68
2018-03-28T19:17:37.321Z,69.81
2018-03-28T19:20:05.782Z,69.43
2018-03-28T19:22:34.297Z,69.27
2018-03-28T19:25:02.770Z,69.16
2018-03-28T19:27:31.324Z,69.04
2018-03-28T19:29:59.794Z,69.38
2018-03-28T19:32:28.254Z,69.50
2018-03-28T19:34:56.800Z,69.55
2018-03-28T19:37:25.249Z,69.58
2018-03-28T19:39:53.741Z,69.79
2018-03-28T19:42:22.206Z,69.87
2018-03-28T19:44:50.702Z,69.96
2018-03-28T19:47:19.159Z,70.23
2018-03-28T19:49:47.624Z,70.56
2018-03-28T19:52:16.146Z,70.06
2018-03-28T19:54:44.669Z,71.21
2018-03-28T19:57:13.126Z,70.80
2018-03-28T19:59:41.643Z,70.89
2018-03-28T20:02:10.138Z,71.01
2018-03-28T20:04:38.597Z,70.85
2018-03-28T20:07:07.095Z,70.59
2018-03-28T20:09:35.589Z,70.75
2018-03-28T20:12:04.084Z,70.68
2018-03-28T20:14:32.608Z,70.52
2018-03-28T20:17:01.062Z,70.62
2018-03-28T20:19:29.546Z,70.99
2018-03-28T20:21:58.059Z,71.14
2018-03-28T20:24:26.526Z,71.31
2018-03-28T20:26:55.027Z,71.29
2018-03-28T20:29:23.478Z,71.41
2018-03-28T20:31:51.986Z,71.49
2018-03-28T20:34:20.440Z,70.58
2018-03-28T20:36:48.897Z,70.35
2018-03-28T20:39:17.387Z,71.14
2018-03-28T20:41:45.891Z,71.22
2018-03-28T20:44:14.386Z,71.34
2018-03-28T20:46:42.858Z,71.86
2018-03-28T20:49:11.351Z,72.18
2018-03-28T20:51:39.886Z,72.98
2018-03-28T20:54:08.347Z,72.89
2018-03-28T20:56:36.847Z,73.51
2018-03-28T20:59:05.353Z,72.63
2018-03-28T21:01:33.812Z,73.30
2018-03-28T21:04:02.291Z,73.32
2018-03-28T21:06:30.806Z,73.47
2018-03-28T21:08:59.262Z,73.40
2018-03-28T21:11:27.776Z,73.56
2018-03-28T21:13:56.306Z,73.80
2018-03-28T21:16:24.851Z,73.36
2018-03-28T21:18:53.309Z,73.91
2018-03-28T21:21:21.764Z,74.32
2018-03-28T21:23:50.254Z,73.94
2018-03-28T21:26:18.755Z,74.42
2018-03-28T21:28:47.266Z,74.61
2018-03-28T21:31:15.738Z,74.38
2018-03-28T21:33:44.230Z,74.79
2018-03-28T21:36:12.738Z,74.28
2018-03-28T21:38:41.218Z,74.42
2018-03-28T21:41:09.746Z,74.50
2018-03-28T21:43:38.221Z,74.47
2018-03-28T21:46:06.686Z,74.38
2018-03-28T21:48:35.178Z,74.34
2018-03-28T21:51:03.670Z,74.37
2018-03-28T21:53:32.158Z,73.22
2018-03-28T21:56:00.657Z,72.38
2018-03-28T21:58:29.162Z,71.31
2018-03-28T22:00:57.673Z,70.86
2018-03-28T22:03:26.131Z,70.74
2018-03-28T22:05:54.622Z,70.70
2018-03-28T22:08:23.749Z,70.77
2018-03-28T22:10:52.246Z,70.46
2018-03-28T22:13:20.742Z,70.40
2018-03-28T22:15:49.228Z,70.40
2018-03-28T22:18:17.718Z,71.01
2018-03-28T22:20:46.178Z,71.17
2018-03-28T22:23:14.680Z,71.03
2018-03-28T22:25:43.207Z,71.35
2018-03-28T22:28:11.696Z,72.56
2018-03-28T22:30:40.154Z,72.58
2018-03-28T22:33:08.649Z,72.52
2018-03-28T22:35:37.204Z,72.27
2018-03-28T22:38:06.582Z,72.34
2018-03-28T22:40:35.037Z,72.47
2018-03-28T22:43:03.552Z,72.30
2018-03-28T22:45:32.028Z,72.25
2018-03-28T22:48:00.493Z,72.43
2018-03-28T22:50:29.014Z,72.63
2018-03-28T22:52:57.518Z,73.22
2018-03-28T22:55:25.991Z,73.19
2018-03-28T22:57:54.446Z,72.96
2018-03-28T23:00:22.938Z,73.83
2018-03-28T23:02:51.424Z,75.83
2018-03-28T23:05:19.922Z,74.76
2018-03-28T23:07:48.375Z,75.37
2018-03-28T23:10:16.833Z,76.12
2018-03-28T23:12:45.329Z,75.65
2018-03-28T23:15:13.818Z,76.49
2018-03-28T23:17:42.321Z,76.53
2018-03-28T23:20:10.831Z,76.87
2018-03-28T23:22:39.334Z,77.56
2018-03-28T23:25:07.850Z,77.98
2018-03-28T23:27:36.315Z,78.51
2018-03-28T23:30:04.850Z,77.99
2018-03-28T23:32:33.330Z,77.73
2018-03-28T23:35:01.822Z,77.44
2018-03-28T23:37:30.297Z,77.62
2018-03-28T23:39:58.815Z,77.35
2018-03-28T23:42:27.274Z,77.08
2018-03-28T23:44:55.770Z,76.98
2018-03-28T23:47:24.282Z,77.72
2018-03-28T23:49:52.733Z,77.49
2018-03-28T23:52:21.240Z,77.33
2018-03-28T23:54:49.704Z,77.80
2018-03-28T23:57:18.202Z,77.43
2018-03-28T23:59:46.693Z,77.29
